sensor_id;sensor_type;location;lat;lon;timestamp;temperature;humidity
4081;DHT22;2055;50.074;8.436;2023-11-19T00:02:20;7.90;99.90
4081;DHT22;2055;50.074;8.436;2023-11-19T00:04:47;7.90;99.90
4081;DHT22;2055;50.074;8.436;2023-11-19T00:07:12;9.30;99.90
4081;DHT22;2055;50.074;8.436;2023-11-19T00:09:39;8.10;99.90
4081;DHT22;2055;50.074;8.436;2023-11-19T00:12:06;7.80;99.90
4081;DHT22;2055;50.074;8.436;2023-11-19T00:14:33;7.90;99.90
4081;DHT22;2055;50.074;8.436;2023-11-19T00:16:59;8.60;99.90
4081;DHT22;2055;50.074;8.436;2023-11-19T00:19:25;8.40;99.90
4081;DHT22;2055;50.074;8.436;2023-11-19T00:21:51;8.00;99.90
4081;DHT22;2055;50.074;8.436;2023-11-19T00:24:17;8.40;99.90
4081;DHT22;2055;50.074;8.436;2023-11-19T00:26:43;8.00;99.90
4081;DHT22;2055;50.074;8.436;2023-11-19T00:29:09;8.00;99.90
4081;DHT22;2055;50.074;8.436;2023-11-19T00:31:34;8.00;99.90
4081;DHT22;2055;50.074;8.436;2023-11-19T00:34:00;8.00;99.90
4081;DHT22;2055;50.074;8.436;2023-11-19T00:36:27;8.00;99.90
4081;DHT22;2055;50.074;8.436;2023-11-19T00:38:53;8.00;99.90
4081;DHT22;2055;50.074;8.436;2023-11-19T00:41:19;8.10;99.90
4081;DHT22;2055;50.074;8.436;2023-11-19T00:43:44;8.00;99.90
4081;DHT22;2055;50.074;8.436;2023-11-19T00:46:10;7.60;99.90
4081;DHT22;2055;50.074;8.436;2023-11-19T00:48:41;8.10;99.90
4081;DHT22;2055;50.074;8.436;2023-11-19T00:51:06;8.10;99.90
4081;DHT22;2055;50.074;8.436;2023-11-19T00:53:32;8.10;99.90
4081;DHT22;2055;50.074;8.436;2023-11-19T00:55:59;8.10;99.90
4081;DHT22;2055;50.074;8.436;2023-11-19T00:58:25;8.10;99.90
4081;DHT22;2055;50.074;8.436;2023-11-19T01:00:50;8.10;99.90
4081;DHT22;2055;50.074;8.436;2023-11-19T01:03:19;8.20;99.90
4081;DHT22;2055;50.074;8.436;2023-11-19T01:05:44;8.20;99.90
4081;DHT22;2055;50.074;8.436;2023-11-19T01:08:12;8.20;99.90
4081;DHT22;2055;50.074;8.436;2023-11-19T01:10:38;8.20;99.90
4081;DHT22;2055;50.074;8.436;2023-11-19T01:13:03;8.20;99.90
4081;DHT22;2055;50.074;8.436;2023-11-19T01:15:31;8.20;99.90
4081;DHT22;2055;50.074;8.436;2023-11-19T01:17:57;8.20;99.90
4081;DHT22;2055;50.074;8.436;2023-11-19T01:20:22;9.60;99.90
4081;DHT22;2055;50.074;8.436;2023-11-19T01:22:49;8.20;99.90
4081;DHT22;2055;50.074;8.436;2023-11-19T01:25:14;8.20;99.90
4081;DHT22;2055;50.074;8.436;2023-11-19T01:27:40;8.20;99.90
4081;DHT22;2055;50.074;8.436;2023-11-19T01:30:06;8.20;99.90
4081;DHT22;2055;50.074;8.436;2023-11-19T01:32:34;8.20;99.90
4081;DHT22;2055;50.074;8.436;2023-11-19T01:35:02;8.30;99.90
4081;DHT22;2055;50.074;8.436;2023-11-19T01:37:27;8.30;99.90
4081;DHT22;2055;50.074;8.436;2023-11-19T01:39:53;8.20;99.90
4081;DHT22;2055;50.074;8.436;2023-11-19T01:42:18;8.30;99.90
4081;DHT22;2055;50.074;8.436;2023-11-19T01:44:56;8.30;99.90
4081;DHT22;2055;50.074;8.436;2023-11-19T01:47:22;8.30;99.90
4081;DHT22;2055;50.074;8.436;2023-11-19T01:49:48;8.30;99.90
4081;DHT22;2055;50.074;8.436;2023-11-19T01:52:14;8.30;99.90
4081;DHT22;2055;50.074;8.436;2023-11-19T01:54:39;8.30;99.90
4081;DHT22;2055;50.074;8.436;2023-11-19T01:57:05;9.00;99.90
4081;DHT22;2055;50.074;8.436;2023-11-19T01:59:31;8.40;99.90
4081;DHT22;2055;50.074;8.436;2023-11-19T02:01:57;8.40;99.90
4081;DHT22;2055;50.074;8.436;2023-11-19T02:04:23;8.40;99.90
4081;DHT22;2055;50.074;8.436;2023-11-19T02:06:50;8.40;99.90
4081;DHT22;2055;50.074;8.436;2023-11-19T02:09:17;8.40;99.90
4081;DHT22;2055;50.074;8.436;2023-11-19T02:11:45;8.40;99.90
4081;DHT22;2055;50.074;8.436;2023-11-19T02:14:15;8.80;99.90
4081;DHT22;2055;50.074;8.436;2023-11-19T02:16:40;8.40;99.90
4081;DHT22;2055;50.074;8.436;2023-11-19T02:19:06;8.40;99.90
4081;DHT22;2055;50.074;8.436;2023-11-19T02:21:31;8.50;99.90
4081;DHT22;2055;50.074;8.436;2023-11-19T02:23:57;8.50;99.90
4081;DHT22;2055;50.074;8.436;2023-11-19T02:26:30;8.50;99.90
4081;DHT22;2055;50.074;8.436;2023-11-19T02:28:58;8.50;99.90
4081;DHT22;2055;50.074;8.436;2023-11-19T02:31:24;8.50;99.90
4081;DHT22;2055;50.074;8.436;2023-11-19T02:33:49;8.50;99.90
4081;DHT22;2055;50.074;8.436;2023-11-19T02:36:15;8.50;99.90
4081;DHT22;2055;50.074;8.436;2023-11-19T02:38:42;8.60;99.90
4081;DHT22;2055;50.074;8.436;2023-11-19T02:41:08;8.50;99.90
4081;DHT22;2055;50.074;8.436;2023-11-19T02:43:36;8.50;99.90
4081;DHT22;2055;50.074;8.436;2023-11-19T02:46:03;8.50;99.90
4081;DHT22;2055;50.074;8.436;2023-11-19T02:48:38;8.50;99.90
4081;DHT22;2055;50.074;8.436;2023-11-19T02:51:04;8.50;99.90
4081;DHT22;2055;50.074;8.436;2023-11-19T02:53:30;8.50;99.90
4081;DHT22;2055;50.074;8.436;2023-11-19T02:55:56;8.60;99.90
4081;DHT22;2055;50.074;8.436;2023-11-19T02:58:27;8.50;99.90
4081;DHT22;2055;50.074;8.436;2023-11-19T03:00:54;8.50;99.90
4081;DHT22;2055;50.074;8.436;2023-11-19T03:03:27;8.60;99.90
4081;DHT22;2055;50.074;8.436;2023-11-19T03:06:07;8.60;99.90
4081;DHT22;2055;50.074;8.436;2023-11-19T03:08:34;8.60;99.90
4081;DHT22;2055;50.074;8.436;2023-11-19T03:11:00;8.60;99.90
4081;DHT22;2055;50.074;8.436;2023-11-19T03:13:26;8.60;99.90
4081;DHT22;2055;50.074;8.436;2023-11-19T03:15:52;8.80;99.90
4081;DHT22;2055;50.074;8.436;2023-11-19T03:18:19;8.60;99.90
4081;DHT22;2055;50.074;8.436;2023-11-19T03:20:46;8.70;99.90
4081;DHT22;2055;50.074;8.436;2023-11-19T03:23:12;8.60;99.90
4081;DHT22;2055;50.074;8.436;2023-11-19T03:25:38;8.60;99.90
4081;DHT22;2055;50.074;8.436;2023-11-19T03:28:03;8.60;99.90
4081;DHT22;2055;50.074;8.436;2023-11-19T03:30:30;8.60;99.90
4081;DHT22;2055;50.074;8.436;2023-11-19T03:32:58;8.70;99.90
4081;DHT22;2055;50.074;8.436;2023-11-19T03:35:26;9.30;99.90
4081;DHT22;2055;50.074;8.436;2023-11-19T03:37:53;8.70;99.90
4081;DHT22;2055;50.074;8.436;2023-11-19T03:40:19;8.70;99.90
4081;DHT22;2055;50.074;8.436;2023-11-19T03:42:48;8.70;99.90
4081;DHT22;2055;50.074;8.436;2023-11-19T03:45:13;9.00;99.90
4081;DHT22;2055;50.074;8.436;2023-11-19T03:47:41;9.40;99.90
4081;DHT22;2055;50.074;8.436;2023-11-19T03:50:07;8.70;99.90
4081;DHT22;2055;50.074;8.436;2023-11-19T03:52:36;8.80;99.90
4081;DHT22;2055;50.074;8.436;2023-11-19T03:55:02;8.80;99.90
4081;DHT22;2055;50.074;8.436;2023-11-19T03:57:31;8.80;99.90
4081;DHT22;2055;50.074;8.436;2023-11-19T03:59:56;8.80;99.90
4081;DHT22;2055;50.074;8.436;2023-11-19T04:02:23;8.80;99.90
4081;DHT22;2055;50.074;8.436;2023-11-19T04:04:53;8.80;99.90
4081;DHT22;2055;50.074;8.436;2023-11-19T04:07:18;10.00;99.90
4081;DHT22;2055;50.074;8.436;2023-11-19T04:09:44;8.80;99.90
4081;DHT22;2055;50.074;8.436;2023-11-19T04:12:12;8.90;99.90
4081;DHT22;2055;50.074;8.436;2023-11-19T04:14:37;8.90;99.90
4081;DHT22;2055;50.074;8.436;2023-11-19T04:17:03;8.90;99.90
4081;DHT22;2055;50.074;8.436;2023-11-19T04:19:28;8.90;99.90
4081;DHT22;2055;50.074;8.436;2023-11-19T04:21:54;9.00;99.90
4081;DHT22;2055;50.074;8.436;2023-11-19T04:24:20;8.90;99.90
4081;DHT22;2055;50.074;8.436;2023-11-19T04:26:45;9.00;99.90
4081;DHT22;2055;50.074;8.436;2023-11-19T04:29:13;9.00;99.90
4081;DHT22;2055;50.074;8.436;2023-11-19T04:31:40;10.20;99.90
4081;DHT22;2055;50.074;8.436;2023-11-19T04:34:06;9.00;99.90
4081;DHT22;2055;50.074;8.436;2023-11-19T04:36:32;9.00;99.90
4081;DHT22;2055;50.074;8.436;2023-11-19T04:38:59;9.10;99.90
4081;DHT22;2055;50.074;8.436;2023-11-19T04:41:26;9.10;99.90
4081;DHT22;2055;50.074;8.436;2023-11-19T04:44:13;9.10;99.90
4081;DHT22;2055;50.074;8.436;2023-11-19T04:47:02;9.10;99.90
4081;DHT22;2055;50.074;8.436;2023-11-19T04:49:28;9.10;99.90
4081;DHT22;2055;50.074;8.436;2023-11-19T04:51:55;9.10;99.90
4081;DHT22;2055;50.074;8.436;2023-11-19T04:54:23;9.10;99.90
4081;DHT22;2055;50.074;8.436;2023-11-19T04:56:49;9.30;99.90
4081;DHT22;2055;50.074;8.436;2023-11-19T04:59:15;9.90;99.90
4081;DHT22;2055;50.074;8.436;2023-11-19T05:01:41;9.20;99.90
4081;DHT22;2055;50.074;8.436;2023-11-19T05:04:08;9.20;99.90
4081;DHT22;2055;50.074;8.436;2023-11-19T05:06:33;9.20;99.90
4081;DHT22;2055;50.074;8.436;2023-11-19T05:09:00;9.20;99.90
4081;DHT22;2055;50.074;8.436;2023-11-19T05:11:26;9.20;99.90
4081;DHT22;2055;50.074;8.436;2023-11-19T05:13:53;9.30;99.90
4081;DHT22;2055;50.074;8.436;2023-11-19T05:16:19;10.10;99.90
4081;DHT22;2055;50.074;8.436;2023-11-19T05:18:46;9.30;99.90
4081;DHT22;2055;50.074;8.436;2023-11-19T05:21:12;9.30;99.90
4081;DHT22;2055;50.074;8.436;2023-11-19T05:23:38;9.30;99.90
4081;DHT22;2055;50.074;8.436;2023-11-19T05:26:04;9.40;99.90
4081;DHT22;2055;50.074;8.436;2023-11-19T05:28:30;9.30;99.90
4081;DHT22;2055;50.074;8.436;2023-11-19T05:30:55;9.30;99.90
4081;DHT22;2055;50.074;8.436;2023-11-19T05:33:21;9.30;99.90
4081;DHT22;2055;50.074;8.436;2023-11-19T05:35:47;9.40;99.90
4081;DHT22;2055;50.074;8.436;2023-11-19T05:38:12;9.30;99.90
4081;DHT22;2055;50.074;8.436;2023-11-19T05:40:38;9.30;99.90
4081;DHT22;2055;50.074;8.436;2023-11-19T05:43:04;9.30;99.90
4081;DHT22;2055;50.074;8.436;2023-11-19T05:45:34;9.30;99.90
4081;DHT22;2055;50.074;8.436;2023-11-19T06:35:05;9.20;99.90
4081;DHT22;2055;50.074;8.436;2023-11-19T06:37:31;9.60;99.90
4081;DHT22;2055;50.074;8.436;2023-11-19T06:39:56;9.60;99.90
4081;DHT22;2055;50.074;8.436;2023-11-19T06:42:22;10.00;99.90
4081;DHT22;2055;50.074;8.436;2023-11-19T06:44:47;9.60;99.90
4081;DHT22;2055;50.074;8.436;2023-11-19T06:47:13;9.70;99.90
4081;DHT22;2055;50.074;8.436;2023-11-19T06:49:38;9.60;99.90
4081;DHT22;2055;50.074;8.436;2023-11-19T06:52:04;9.70;99.90
4081;DHT22;2055;50.074;8.436;2023-11-19T06:54:30;9.70;99.90
4081;DHT22;2055;50.074;8.436;2023-11-19T06:56:56;9.80;99.90
4081;DHT22;2055;50.074;8.436;2023-11-19T06:59:23;9.80;99.90
4081;DHT22;2055;50.074;8.436;2023-11-19T07:01:48;9.80;99.90
4081;DHT22;2055;50.074;8.436;2023-11-19T07:04:14;9.80;99.90
4081;DHT22;2055;50.074;8.436;2023-11-19T07:06:40;9.90;99.90
4081;DHT22;2055;50.074;8.436;2023-11-19T07:09:09;9.90;99.90
4081;DHT22;2055;50.074;8.436;2023-11-19T07:11:41;9.90;99.90
4081;DHT22;2055;50.074;8.436;2023-11-19T07:14:08;10.00;99.90
4081;DHT22;2055;50.074;8.436;2023-11-19T07:16:34;10.10;99.90
4081;DHT22;2055;50.074;8.436;2023-11-19T07:19:00;10.10;99.90
4081;DHT22;2055;50.074;8.436;2023-11-19T07:21:26;10.10;99.90
4081;DHT22;2055;50.074;8.436;2023-11-19T07:23:54;10.00;99.90
4081;DHT22;2055;50.074;8.436;2023-11-19T07:26:19;10.00;99.90
4081;DHT22;2055;50.074;8.436;2023-11-19T07:28:45;10.00;99.90
4081;DHT22;2055;50.074;8.436;2023-11-19T07:31:11;10.10;99.90
4081;DHT22;2055;50.074;8.436;2023-11-19T07:33:39;10.00;99.90
4081;DHT22;2055;50.074;8.436;2023-11-19T07:36:05;10.00;99.90
4081;DHT22;2055;50.074;8.436;2023-11-19T07:38:31;10.00;99.90
4081;DHT22;2055;50.074;8.436;2023-11-19T07:40:56;10.00;99.90
4081;DHT22;2055;50.074;8.436;2023-11-19T07:43:22;10.10;99.90
4081;DHT22;2055;50.074;8.436;2023-11-19T07:45:47;10.10;99.90
4081;DHT22;2055;50.074;8.436;2023-11-19T07:48:13;10.30;99.90
4081;DHT22;2055;50.074;8.436;2023-11-19T07:50:39;10.30;99.90
4081;DHT22;2055;50.074;8.436;2023-11-19T07:53:07;10.40;99.90
4081;DHT22;2055;50.074;8.436;2023-11-19T07:55:33;10.40;99.90
4081;DHT22;2055;50.074;8.436;2023-11-19T07:57:58;10.50;99.90
4081;DHT22;2055;50.074;8.436;2023-11-19T08:00:24;10.70;99.90
4081;DHT22;2055;50.074;8.436;2023-11-19T08:02:49;10.80;99.90
4081;DHT22;2055;50.074;8.436;2023-11-19T08:05:15;10.90;99.90
4081;DHT22;2055;50.074;8.436;2023-11-19T08:07:41;11.00;99.90
4081;DHT22;2055;50.074;8.436;2023-11-19T08:10:07;11.10;99.90
4081;DHT22;2055;50.074;8.436;2023-11-19T08:12:35;11.20;99.90
4081;DHT22;2055;50.074;8.436;2023-11-19T08:15:02;11.30;99.90
4081;DHT22;2055;50.074;8.436;2023-11-19T08:17:28;11.40;99.90
4081;DHT22;2055;50.074;8.436;2023-11-19T08:19:53;11.60;99.90
4081;DHT22;2055;50.074;8.436;2023-11-19T08:22:19;11.70;99.90
4081;DHT22;2055;50.074;8.436;2023-11-19T08:24:44;11.80;99.90
4081;DHT22;2055;50.074;8.436;2023-11-19T08:27:10;11.70;99.90
4081;DHT22;2055;50.074;8.436;2023-11-19T08:29:35;11.60;99.90
4081;DHT22;2055;50.074;8.436;2023-11-19T08:32:01;11.40;99.90
4081;DHT22;2055;50.074;8.436;2023-11-19T08:34:30;11.20;99.90
4081;DHT22;2055;50.074;8.436;2023-11-19T08:36:56;11.30;99.90
4081;DHT22;2055;50.074;8.436;2023-11-19T08:39:21;11.70;99.90
4081;DHT22;2055;50.074;8.436;2023-11-19T08:41:47;11.20;99.90
4081;DHT22;2055;50.074;8.436;2023-11-19T08:44:14;11.40;99.90
4081;DHT22;2055;50.074;8.436;2023-11-19T08:46:45;11.30;99.90
4081;DHT22;2055;50.074;8.436;2023-11-19T08:49:11;11.40;99.90
4081;DHT22;2055;50.074;8.436;2023-11-19T08:51:36;11.90;99.90
4081;DHT22;2055;50.074;8.436;2023-11-19T08:54:02;12.00;99.90
4081;DHT22;2055;50.074;8.436;2023-11-19T08:56:28;12.00;99.90
4081;DHT22;2055;50.074;8.436;2023-11-19T08:58:58;11.90;99.90
4081;DHT22;2055;50.074;8.436;2023-11-19T09:01:23;11.90;99.90
4081;DHT22;2055;50.074;8.436;2023-11-19T09:03:50;11.80;99.90
4081;DHT22;2055;50.074;8.436;2023-11-19T09:06:15;11.70;99.90
4081;DHT22;2055;50.074;8.436;2023-11-19T09:08:42;11.70;99.90
4081;DHT22;2055;50.074;8.436;2023-11-19T09:11:08;12.30;99.90
4081;DHT22;2055;50.074;8.436;2023-11-19T09:13:34;12.70;99.90
4081;DHT22;2055;50.074;8.436;2023-11-19T09:16:00;11.60;99.90
4081;DHT22;2055;50.074;8.436;2023-11-19T09:18:29;11.60;99.90
4081;DHT22;2055;50.074;8.436;2023-11-19T09:20:55;11.60;99.90
4081;DHT22;2055;50.074;8.436;2023-11-19T09:23:20;11.60;99.90
4081;DHT22;2055;50.074;8.436;2023-11-19T09:25:46;11.60;99.90
4081;DHT22;2055;50.074;8.436;2023-11-19T09:28:12;11.60;99.90
4081;DHT22;2055;50.074;8.436;2023-11-19T09:30:39;11.60;99.90
4081;DHT22;2055;50.074;8.436;2023-11-19T09:33:05;11.70;99.90
4081;DHT22;2055;50.074;8.436;2023-11-19T09:35:30;11.70;99.90
4081;DHT22;2055;50.074;8.436;2023-11-19T09:37:56;11.70;99.90
4081;DHT22;2055;50.074;8.436;2023-11-19T09:40:22;11.70;99.90
4081;DHT22;2055;50.074;8.436;2023-11-19T09:42:47;11.80;99.90
4081;DHT22;2055;50.074;8.436;2023-11-19T09:45:15;11.90;99.90
4081;DHT22;2055;50.074;8.436;2023-11-19T09:47:46;12.00;99.90
4081;DHT22;2055;50.074;8.436;2023-11-19T09:50:19;12.00;99.90
4081;DHT22;2055;50.074;8.436;2023-11-19T09:52:45;12.10;99.90
4081;DHT22;2055;50.074;8.436;2023-11-19T09:55:11;12.30;99.90
4081;DHT22;2055;50.074;8.436;2023-11-19T09:57:39;12.50;99.90
4081;DHT22;2055;50.074;8.436;2023-11-19T10:00:06;12.50;99.90
4081;DHT22;2055;50.074;8.436;2023-11-19T10:02:33;12.60;99.90
4081;DHT22;2055;50.074;8.436;2023-11-19T10:05:04;12.80;99.90
4081;DHT22;2055;50.074;8.436;2023-11-19T10:07:31;12.90;99.90
4081;DHT22;2055;50.074;8.436;2023-11-19T10:09:59;13.00;99.90
4081;DHT22;2055;50.074;8.436;2023-11-19T10:12:26;13.40;99.90
4081;DHT22;2055;50.074;8.436;2023-11-19T10:14:54;13.20;99.90
4081;DHT22;2055;50.074;8.436;2023-11-19T10:17:21;13.30;99.90
4081;DHT22;2055;50.074;8.436;2023-11-19T10:19:47;13.40;99.90
4081;DHT22;2055;50.074;8.436;2023-11-19T10:22:12;13.40;99.90
4081;DHT22;2055;50.074;8.436;2023-11-19T10:24:41;13.60;99.90
4081;DHT22;2055;50.074;8.436;2023-11-19T10:27:07;13.60;99.90
4081;DHT22;2055;50.074;8.436;2023-11-19T10:29:36;13.70;99.90
4081;DHT22;2055;50.074;8.436;2023-11-19T10:32:03;14.90;99.90
4081;DHT22;2055;50.074;8.436;2023-11-19T10:34:28;13.80;99.90
4081;DHT22;2055;50.074;8.436;2023-11-19T10:36:55;13.90;99.90
4081;DHT22;2055;50.074;8.436;2023-11-19T10:39:21;14.10;99.90
4081;DHT22;2055;50.074;8.436;2023-11-19T10:41:46;14.10;99.90
4081;DHT22;2055;50.074;8.436;2023-11-19T10:44:12;15.20;99.90
4081;DHT22;2055;50.074;8.436;2023-11-19T10:46:39;14.10;99.90
4081;DHT22;2055;50.074;8.436;2023-11-19T10:49:09;14.10;99.90
4081;DHT22;2055;50.074;8.436;2023-11-19T10:51:35;14.00;99.90
4081;DHT22;2055;50.074;8.436;2023-11-19T10:54:05;14.50;99.90
4081;DHT22;2055;50.074;8.436;2023-11-19T10:56:31;14.10;99.90
4081;DHT22;2055;50.074;8.436;2023-11-19T10:58:59;15.90;99.90
4081;DHT22;2055;50.074;8.436;2023-11-19T11:01:28;14.20;99.90
4081;DHT22;2055;50.074;8.436;2023-11-19T11:03:59;14.30;64.00
4081;DHT22;2055;50.074;8.436;2023-11-19T11:06:27;14.50;1.00
4081;DHT22;2055;50.074;8.436;2023-11-19T11:08:53;14.70;1.00
4081;DHT22;2055;50.074;8.436;2023-11-19T11:11:20;14.60;1.00
4081;DHT22;2055;50.074;8.436;2023-11-19T11:13:47;14.50;1.00
4081;DHT22;2055;50.074;8.436;2023-11-19T11:16:14;14.50;1.00
4081;DHT22;2055;50.074;8.436;2023-11-19T11:18:40;14.40;1.00
4081;DHT22;2055;50.074;8.436;2023-11-19T11:21:09;15.60;1.00
4081;DHT22;2055;50.074;8.436;2023-11-19T11:24:00;14.60;99.90
4081;DHT22;2055;50.074;8.436;2023-11-19T11:29:41;14.60;1.00
4081;DHT22;2055;50.074;8.436;2023-11-19T11:37:46;14.30;1.00
4081;DHT22;2055;50.074;8.436;2023-11-19T11:40:15;14.60;1.00
4081;DHT22;2055;50.074;8.436;2023-11-19T11:42:42;14.80;1.00
4081;DHT22;2055;50.074;8.436;2023-11-19T11:50:16;15.10;1.00
4081;DHT22;2055;50.074;8.436;2023-11-19T11:55:37;15.10;1.00
4081;DHT22;2055;50.074;8.436;2023-11-19T11:58:06;14.50;99.90
4081;DHT22;2055;50.074;8.436;2023-11-19T12:00:39;14.60;1.00
4081;DHT22;2055;50.074;8.436;2023-11-19T12:03:06;14.70;99.90
4081;DHT22;2055;50.074;8.436;2023-11-19T12:05:33;14.80;99.90
4081;DHT22;2055;50.074;8.436;2023-11-19T12:08:04;15.00;99.90
4081;DHT22;2055;50.074;8.436;2023-11-19T12:10:37;15.00;99.90
4081;DHT22;2055;50.074;8.436;2023-11-19T12:13:06;14.80;1.00
4081;DHT22;2055;50.074;8.436;2023-11-19T12:15:32;14.60;1.00
4081;DHT22;2055;50.074;8.436;2023-11-19T12:17:58;14.60;1.00
4081;DHT22;2055;50.074;8.436;2023-11-19T12:20:25;14.50;1.00
4081;DHT22;2055;50.074;8.436;2023-11-19T12:22:51;14.50;1.00
4081;DHT22;2055;50.074;8.436;2023-11-19T12:25:18;14.70;1.00
4081;DHT22;2055;50.074;8.436;2023-11-19T12:27:47;14.10;1.00
4081;DHT22;2055;50.074;8.436;2023-11-19T12:30:22;13.90;1.00
4081;DHT22;2055;50.074;8.436;2023-11-19T12:32:48;14.00;1.00
4081;DHT22;2055;50.074;8.436;2023-11-19T12:35:14;14.20;1.00
4081;DHT22;2055;50.074;8.436;2023-11-19T12:37:44;14.30;99.90
4081;DHT22;2055;50.074;8.436;2023-11-19T12:40:21;14.30;99.90
4081;DHT22;2055;50.074;8.436;2023-11-19T12:42:51;14.40;99.90
4081;DHT22;2055;50.074;8.436;2023-11-19T12:45:17;14.40;1.00
4081;DHT22;2055;50.074;8.436;2023-11-19T12:47:44;14.50;1.00
4081;DHT22;2055;50.074;8.436;2023-11-19T12:50:12;14.40;99.90
4081;DHT22;2055;50.074;8.436;2023-11-19T12:52:38;14.50;99.90
4081;DHT22;2055;50.074;8.436;2023-11-19T12:55:05;14.20;99.90
4081;DHT22;2055;50.074;8.436;2023-11-19T12:57:49;14.30;99.90
4081;DHT22;2055;50.074;8.436;2023-11-19T13:00:22;14.00;99.90
4081;DHT22;2055;50.074;8.436;2023-11-19T13:02:49;14.20;99.90
4081;DHT22;2055;50.074;8.436;2023-11-19T13:08:08;15.60;38.90
4081;DHT22;2055;50.074;8.436;2023-11-19T13:10:50;15.10;21.50
4081;DHT22;2055;50.074;8.436;2023-11-19T13:13:16;16.40;1.00
4081;DHT22;2055;50.074;8.436;2023-11-19T13:15:42;16.20;1.00
4081;DHT22;2055;50.074;8.436;2023-11-19T13:18:10;16.00;1.00
4081;DHT22;2055;50.074;8.436;2023-11-19T13:20:36;15.50;1.00
4081;DHT22;2055;50.074;8.436;2023-11-19T13:23:03;15.00;1.00
4081;DHT22;2055;50.074;8.436;2023-11-19T13:25:30;14.60;1.00
4081;DHT22;2055;50.074;8.436;2023-11-19T13:27:56;15.40;1.00
4081;DHT22;2055;50.074;8.436;2023-11-19T13:30:22;16.60;1.00
4081;DHT22;2055;50.074;8.436;2023-11-19T13:32:49;17.10;1.00
4081;DHT22;2055;50.074;8.436;2023-11-19T13:35:15;16.60;1.00
4081;DHT22;2055;50.074;8.436;2023-11-19T13:37:41;17.00;1.00
4081;DHT22;2055;50.074;8.436;2023-11-19T13:40:07;17.50;1.00
4081;DHT22;2055;50.074;8.436;2023-11-19T13:42:33;17.30;1.00
4081;DHT22;2055;50.074;8.436;2023-11-19T13:44:58;16.70;1.00
4081;DHT22;2055;50.074;8.436;2023-11-19T13:47:24;17.40;1.00
4081;DHT22;2055;50.074;8.436;2023-11-19T13:49:50;16.80;1.00
4081;DHT22;2055;50.074;8.436;2023-11-19T13:52:15;16.50;1.00
4081;DHT22;2055;50.074;8.436;2023-11-19T13:54:41;16.80;1.00
4081;DHT22;2055;50.074;8.436;2023-11-19T13:57:06;16.00;1.00
4081;DHT22;2055;50.074;8.436;2023-11-19T13:59:32;15.60;1.00
4081;DHT22;2055;50.074;8.436;2023-11-19T14:01:58;15.30;1.00
4081;DHT22;2055;50.074;8.436;2023-11-19T14:04:23;15.00;1.00
4081;DHT22;2055;50.074;8.436;2023-11-19T14:06:49;14.70;1.00
4081;DHT22;2055;50.074;8.436;2023-11-19T14:09:15;14.50;1.00
4081;DHT22;2055;50.074;8.436;2023-11-19T14:11:40;14.70;1.00
4081;DHT22;2055;50.074;8.436;2023-11-19T14:14:07;14.80;1.00
4081;DHT22;2055;50.074;8.436;2023-11-19T14:16:33;14.90;1.00
4081;DHT22;2055;50.074;8.436;2023-11-19T14:18:59;15.10;1.00
4081;DHT22;2055;50.074;8.436;2023-11-19T14:21:25;15.30;1.00
4081;DHT22;2055;50.074;8.436;2023-11-19T14:23:52;15.40;1.00
4081;DHT22;2055;50.074;8.436;2023-11-19T14:26:17;15.30;1.00
4081;DHT22;2055;50.074;8.436;2023-11-19T14:28:43;14.60;1.00
4081;DHT22;2055;50.074;8.436;2023-11-19T14:31:09;14.20;1.00
4081;DHT22;2055;50.074;8.436;2023-11-19T14:33:34;14.10;1.00
4081;DHT22;2055;50.074;8.436;2023-11-19T14:36:01;14.00;1.00
4081;DHT22;2055;50.074;8.436;2023-11-19T14:38:27;14.20;1.00
4081;DHT22;2055;50.074;8.436;2023-11-19T14:40:53;14.30;1.00
4081;DHT22;2055;50.074;8.436;2023-11-19T14:43:18;14.30;1.00
4081;DHT22;2055;50.074;8.436;2023-11-19T14:45:44;15.00;1.00
4081;DHT22;2055;50.074;8.436;2023-11-19T14:48:09;14.20;1.00
4081;DHT22;2055;50.074;8.436;2023-11-19T14:50:35;14.10;1.00
4081;DHT22;2055;50.074;8.436;2023-11-19T14:53:01;14.10;1.00
4081;DHT22;2055;50.074;8.436;2023-11-19T14:55:27;14.10;1.00
4081;DHT22;2055;50.074;8.436;2023-11-19T14:57:52;14.00;1.00
4081;DHT22;2055;50.074;8.436;2023-11-19T15:00:19;13.80;1.00
4081;DHT22;2055;50.074;8.436;2023-11-19T15:02:44;13.60;1.00
4081;DHT22;2055;50.074;8.436;2023-11-19T15:05:10;15.30;1.00
4081;DHT22;2055;50.074;8.436;2023-11-19T15:07:37;13.40;1.00
4081;DHT22;2055;50.074;8.436;2023-11-19T15:10:03;13.40;1.00
4081;DHT22;2055;50.074;8.436;2023-11-19T15:12:29;13.40;1.00
4081;DHT22;2055;50.074;8.436;2023-11-19T15:14:55;13.30;1.00
4081;DHT22;2055;50.074;8.436;2023-11-19T15:17:21;13.20;1.00
4081;DHT22;2055;50.074;8.436;2023-11-19T15:19:47;13.10;1.00
4081;DHT22;2055;50.074;8.436;2023-11-19T15:22:13;13.00;1.00
4081;DHT22;2055;50.074;8.436;2023-11-19T15:24:38;13.00;1.00
4081;DHT22;2055;50.074;8.436;2023-11-19T15:27:07;12.80;1.00
4081;DHT22;2055;50.074;8.436;2023-11-19T15:29:35;12.60;1.00
4081;DHT22;2055;50.074;8.436;2023-11-19T15:32:00;12.60;1.00
4081;DHT22;2055;50.074;8.436;2023-11-19T15:34:26;12.60;1.00
4081;DHT22;2055;50.074;8.436;2023-11-19T15:36:51;13.20;1.00
4081;DHT22;2055;50.074;8.436;2023-11-19T15:39:17;12.70;1.00
4081;DHT22;2055;50.074;8.436;2023-11-19T15:41:43;12.50;1.00
4081;DHT22;2055;50.074;8.436;2023-11-19T15:44:09;12.40;98.80
4081;DHT22;2055;50.074;8.436;2023-11-19T15:46:34;12.20;99.90
4081;DHT22;2055;50.074;8.436;2023-11-19T15:49:00;12.10;99.90
4081;DHT22;2055;50.074;8.436;2023-11-19T15:51:26;12.10;99.90
4081;DHT22;2055;50.074;8.436;2023-11-19T15:53:51;11.80;1.00
4081;DHT22;2055;50.074;8.436;2023-11-19T15:56:17;11.80;1.00
4081;DHT22;2055;50.074;8.436;2023-11-19T15:58:44;12.10;1.00
4081;DHT22;2055;50.074;8.436;2023-11-19T16:05:06;12.10;1.00
4081;DHT22;2055;50.074;8.436;2023-11-19T16:07:34;12.00;1.00
4081;DHT22;2055;50.074;8.436;2023-11-19T16:10:01;11.90;1.00
4081;DHT22;2055;50.074;8.436;2023-11-19T16:12:30;11.60;1.00
4081;DHT22;2055;50.074;8.436;2023-11-19T16:14:55;12.10;1.00
4081;DHT22;2055;50.074;8.436;2023-11-19T16:17:21;11.70;1.00
4081;DHT22;2055;50.074;8.436;2023-11-19T16:19:46;11.70;72.90
4081;DHT22;2055;50.074;8.436;2023-11-19T16:22:12;11.30;99.90
4081;DHT22;2055;50.074;8.436;2023-11-19T16:24:38;11.20;1.00
4081;DHT22;2055;50.074;8.436;2023-11-19T16:27:04;11.10;1.00
4081;DHT22;2055;50.074;8.436;2023-11-19T16:29:30;11.20;99.90
4081;DHT22;2055;50.074;8.436;2023-11-19T16:31:56;10.60;1.00
4081;DHT22;2055;50.074;8.436;2023-11-19T16:34:22;10.50;1.00
4081;DHT22;2055;50.074;8.436;2023-11-19T16:36:47;10.60;1.00
4081;DHT22;2055;50.074;8.436;2023-11-19T16:39:14;10.60;99.90
4081;DHT22;2055;50.074;8.436;2023-11-19T16:41:40;11.00;99.90
4081;DHT22;2055;50.074;8.436;2023-11-19T16:44:06;11.90;99.90
4081;DHT22;2055;50.074;8.436;2023-11-19T16:46:32;13.50;1.00
4081;DHT22;2055;50.074;8.436;2023-11-19T16:48:58;11.10;1.00
4081;DHT22;2055;50.074;8.436;2023-11-19T16:51:24;11.20;1.00
4081;DHT22;2055;50.074;8.436;2023-11-19T16:53:52;11.40;99.90
4081;DHT22;2055;50.074;8.436;2023-11-19T16:56:18;11.40;99.90
4081;DHT22;2055;50.074;8.436;2023-11-19T16:58:45;11.30;99.90
4081;DHT22;2055;50.074;8.436;2023-11-19T17:01:11;11.50;99.90
4081;DHT22;2055;50.074;8.436;2023-11-19T17:03:37;11.50;99.90
4081;DHT22;2055;50.074;8.436;2023-11-19T17:06:04;11.50;99.90
4081;DHT22;2055;50.074;8.436;2023-11-19T17:08:29;11.50;99.90
4081;DHT22;2055;50.074;8.436;2023-11-19T17:11:02;11.50;99.90
4081;DHT22;2055;50.074;8.436;2023-11-19T17:13:29;11.30;1.00
4081;DHT22;2055;50.074;8.436;2023-11-19T17:15:55;11.20;1.00
4081;DHT22;2055;50.074;8.436;2023-11-19T17:18:21;11.20;1.00
4081;DHT22;2055;50.074;8.436;2023-11-19T17:20:47;11.10;1.00